KCDC/CDC METAR and TAF weather

Enter ICAO airport designator
Station Type Date Time Source
KCDC METAR 2020/04/07 02:53 UTC NOAA

KCDC 070253Z AUTO 22010KT 10SM CLR 09/M01 A2995 RMK AO2 SLP106 T00891011 53018


Station Type Date Time Source
KCDC Decoded METAR 2020/04/07 02:53 UTC NOAA

CEDAR CITY MUN AIRPORT, UT, United States (KCDC) 37-42N 113-06W 1714M
Apr 06, 2020 - 10:53 PM EDT / 2020.04.07 0253 UTC
Wind: from the SW (220 degrees) at 12 MPH (10 KT):0
Visibility: 10 mile(s):0
Sky conditions: clear
Temperature: 48.0 F (8.9 C)
Dew Point: 30.0 F (-1.1 C)
Relative Humidity: 49%
Pressure (altimeter): 29.95 in. Hg (1014 hPa)
Pressure tendency: 0.05 inches (1.8 hPa) higher than three hours ago
ob: KCDC 070253Z AUTO 22010KT 10SM CLR 09/M01 A2995 RMK AO2 SLP106 T00891011 53018
cycle: 3

Station Type Date Time Source
KCDC TAF 2020/04/07 02:54 UTC NOAA

TAF
AMD KCDC 070153Z 0702/0724 21011G20KT P6SM SCT040 SCT150
FM070400 20011KT P6SM SCT060 SCT100
FM070800 20009KT P6SM BKN100
FM071900 21010G20KT P6SM BKN070

Example: see airport list